Terminal Aerodrome Forecast
Issued by NWS Sioux Falls, SD

Home | Current Version | Previous Version | Text Only | Print | Product List | Glossary On
Versions: 1 2 3 4 5 6 7 8 9 10 11 12
000
FTUS43 KFSD 011720
TAFHON
TAF
KHON 011720Z 0118/0218 02013G19KT P6SM SCT040
     FM012100 01009KT P6SM SCT040
     FM020200 VRB03KT P6SM SKC
     FM021500 26006KT P6SM SCT040 BKN150=

USA.gov is the U.S. government's official web portal to all federal, state and local government web resources and services.